Cut Bank, MT

3:20 AM MDT on October 31, 2014 (GMT -0600)
Cut Bank Municipal | Change Station
CLOSE
Current Station
Airport
Location: Cut Bank,
Elevation: 3855 ft
Nearby Weather Stations
Active Advisory: Winter Storm Watch

Elev 3855 ft 48.61 °N, 112.38 °W | Updated 24 minutes ago

Clear
Clear
32 °F
Feels Like 26 °F
N
6
Wind Variable Wind from ENE

Today
High -- | Low -- °F
--% Chance of Precip.
Yesterday
High -- | Low -- °F
Precip. -- in
8:14 AM 6:11 PM
First Quarter, 53% visible
Pressure 29.96 in
Visibility 7.0 miles
Clouds Clear
Windchill 26 °F
Dew Point 31 °F
Humidity 96%
Rainfall 0.00 in
Snow Depth Not available.
UV 0 out of 12
Pollen .30 out of 12
Air Quality Not available.
Flu Activity Not available.
METAR KCTB 310856Z AUTO 07005KT 7SM CLR 00/M01 A2992 RMK AO2 SLP144 T00001006 56024

More Conditions Fewer Conditions

Pressure 29.96 in
Visibility 7.0 miles
Clouds Clear
Windchill 26 °F
Dew Point 31 °F
Humidity 96%
Rainfall 0.00 in
Snow Depth Not available.
UV 0 out of 12
Pollen .30 out of 12
Air Quality Not available.
Flu Activity Not available.
METAR KCTB 310856Z AUTO 07005KT 7SM CLR 00/M01 A2992 RMK AO2 SLP144 T00001006 56024

More Conditions Fewer Conditions

10-Day Weather Forecast

Almanac

Astronomy

Oct. 31, 2014 Rise Set
Actual Time
Civil Twilight
Nautical Twilight
Astronomical Twilight
Moon
Length of Visible Light
Length of Day
Tomorrow will be .
, % of the Moon is Illuminated

Today's Extremes

State Highs State Lows

Community

WunderPhotos

Upload Photos

1,766,576 photos uploaded!

WunderBlogs® & News

Nearby

Air Quality

  Air Quality AQ Index Pollutant
Not available.

Snow Depth

Station Depth Elevation

Earthquake Activity

City Distance Mag. Time & Date
Minimum magnitude displayed is 2.5.

Coastal Water Temperatures

Place Temperature

Nearby Weather Stations